EZY63DN EGKK-EDDH
Flight info
| Callsign | EZY63DN |
|---|---|
| Flight time | 1h 14m |
| Altitude | 37000 |
| Route | FRANE M604 PAAVO Q295 SOMVA DCT MAVAS DCT TULIP Y12 SPY N873 ANDIK M105 RIBSO RIBSO3P |
| Aircraft | A320/M-SDE3FGHIRWY/LB1 |
Departure
| Time | 2026-04-22 18:44 |
|---|---|
| Airport | London Gatwick Airport (EGKK) |
Arrival
| Time | 2026-04-22 19:58 |
|---|---|
| Airport | Hamburg Helmut Schmidt Airport (EDDH) |
| Time | Latitude | Longitude | Altitude | Speed | Heading |
|---|---|---|---|---|---|
| 2026-04-22 18:18 | 51.15905 | -0.17958 | 205 ft | 0 kts | 78° |
| 2026-04-22 18:28 | 51.15904 | -0.17961 | 204 ft | 2 kts | 78° |
| 2026-04-22 18:28 | 51.15899 | -0.18001 | 212 ft | 4 kts | 81° |
| 2026-04-22 18:28 | 51.15897 | -0.18044 | 204 ft | 4 kts | 89° |
| 2026-04-22 18:29 | 51.15899 | -0.18085 | 205 ft | 4 kts | 119° |
| 2026-04-22 18:29 | 51.15910 | -0.18103 | 210 ft | 0 kts | 167° |
| 2026-04-22 18:33 | 51.15909 | -0.18103 | 210 ft | 2 kts | 167° |
| 2026-04-22 18:33 | 51.15819 | -0.18071 | 211 ft | 15 kts | 167° |
| 2026-04-22 18:33 | 51.15725 | -0.18039 | 205 ft | 11 kts | 171° |
| 2026-04-22 18:33 | 51.15680 | -0.18100 | 204 ft | 9 kts | 253° |
| 2026-04-22 18:34 | 51.15666 | -0.18197 | 205 ft | 9 kts | 257° |
| 2026-04-22 18:34 | 51.15651 | -0.18300 | 203 ft | 11 kts | 257° |
| 2026-04-22 18:34 | 51.15636 | -0.18412 | 201 ft | 10 kts | 257° |
| 2026-04-22 18:34 | 51.15623 | -0.18508 | 204 ft | 9 kts | 257° |
| 2026-04-22 18:35 | 51.15605 | -0.18637 | 202 ft | 12 kts | 257° |
| 2026-04-22 18:35 | 51.15589 | -0.18755 | 211 ft | 10 kts | 257° |
| 2026-04-22 18:35 | 51.15532 | -0.18821 | 209 ft | 11 kts | 176° |
| 2026-04-22 18:35 | 51.15450 | -0.18793 | 203 ft | 15 kts | 168° |
| 2026-04-22 18:36 | 51.15354 | -0.18760 | 205 ft | 13 kts | 167° |
| 2026-04-22 18:36 | 51.15271 | -0.18730 | 209 ft | 12 kts | 167° |
| 2026-04-22 18:36 | 51.15196 | -0.18704 | 212 ft | 10 kts | 167° |
| 2026-04-22 18:36 | 51.15137 | -0.18724 | 208 ft | 8 kts | 225° |
| 2026-04-22 18:37 | 51.15113 | -0.18853 | 213 ft | 17 kts | 258° |
| 2026-04-22 18:37 | 51.15088 | -0.19028 | 202 ft | 15 kts | 258° |
| 2026-04-22 18:37 | 51.15067 | -0.19184 | 205 ft | 14 kts | 258° |
| 2026-04-22 18:37 | 51.15048 | -0.19326 | 204 ft | 12 kts | 257° |
| 2026-04-22 18:38 | 51.15024 | -0.19492 | 207 ft | 16 kts | 258° |
| 2026-04-22 18:38 | 51.14999 | -0.19680 | 208 ft | 18 kts | 257° |
| 2026-04-22 18:38 | 51.14973 | -0.19871 | 202 ft | 17 kts | 258° |
| 2026-04-22 18:39 | 51.14925 | -0.20219 | 204 ft | 15 kts | 257° |
| 2026-04-22 18:39 | 51.14904 | -0.20372 | 201 ft | 16 kts | 257° |
| 2026-04-22 18:39 | 51.14875 | -0.20578 | 206 ft | 19 kts | 258° |
| 2026-04-22 18:39 | 51.14848 | -0.20776 | 202 ft | 17 kts | 257° |
| 2026-04-22 18:40 | 51.14823 | -0.20954 | 208 ft | 16 kts | 258° |
| 2026-04-22 18:40 | 51.14801 | -0.21111 | 208 ft | 14 kts | 255° |
| 2026-04-22 18:40 | 51.14773 | -0.21252 | 202 ft | 13 kts | 257° |
| 2026-04-22 18:40 | 51.14748 | -0.21379 | 209 ft | 11 kts | 234° |
| 2026-04-22 18:41 | 51.14683 | -0.21387 | 209 ft | 9 kts | 154° |
| 2026-04-22 18:41 | 51.14633 | -0.21330 | 205 ft | 7 kts | 163° |
| 2026-04-22 18:41 | 51.14607 | -0.21323 | 205 ft | 0 kts | 168° |
| 2026-04-22 18:42 | 51.14572 | -0.21310 | 204 ft | 12 kts | 162° |
| 2026-04-22 18:42 | 51.14518 | -0.21203 | 206 ft | 12 kts | 95° |
| 2026-04-22 18:42 | 51.14527 | -0.21111 | 211 ft | 1 kts | 77° |
| 2026-04-22 18:42 | 51.14528 | -0.21106 | 209 ft | 0 kts | 77° |
| 2026-04-22 18:43 | 51.14528 | -0.21103 | 209 ft | 2 kts | 77° |
| 2026-04-22 18:43 | 51.14567 | -0.20828 | 205 ft | 60 kts | 78° |
| 2026-04-22 18:43 | 51.14701 | -0.19856 | 205 ft | 118 kts | 77° |
| 2026-04-22 18:44 | 51.14905 | -0.18334 | 372 ft | 151 kts | 77° |
| 2026-04-22 18:44 | 51.15132 | -0.16642 | 994 ft | 159 kts | 77° |
| 2026-04-22 18:44 | 51.15383 | -0.14888 | 1609 ft | 170 kts | 78° |
| 2026-04-22 18:44 | 51.15665 | -0.12914 | 1924 ft | 195 kts | 78° |
| 2026-04-22 18:45 | 51.15976 | -0.10675 | 2247 ft | 221 kts | 79° |
| 2026-04-22 18:45 | 51.16310 | -0.08226 | 3015 ft | 231 kts | 80° |
| 2026-04-22 18:45 | 51.16659 | -0.05667 | 3856 ft | 239 kts | 81° |
| 2026-04-22 18:45 | 51.16895 | -0.03014 | 4677 ft | 244 kts | 92° |
| 2026-04-22 18:46 | 51.16844 | -0.00260 | 5519 ft | 251 kts | 94° |
| 2026-04-22 18:46 | 51.16789 | 0.02520 | 6346 ft | 255 kts | 94° |
| 2026-04-22 18:46 | 51.16732 | 0.05378 | 7206 ft | 259 kts | 94° |
| 2026-04-22 18:46 | 51.16678 | 0.08274 | 8049 ft | 263 kts | 94° |
| 2026-04-22 18:47 | 51.16623 | 0.11208 | 8893 ft | 266 kts | 93° |
| 2026-04-22 18:47 | 51.16584 | 0.14152 | 9709 ft | 271 kts | 90° |
| 2026-04-22 18:47 | 51.16836 | 0.17166 | 10633 ft | 277 kts | 82° |
| 2026-04-22 18:47 | 51.17213 | 0.20325 | 10922 ft | 301 kts | 81° |
| 2026-04-22 18:48 | 51.17624 | 0.23729 | 11229 ft | 321 kts | 81° |
| 2026-04-22 18:48 | 51.18323 | 0.27122 | 11813 ft | 333 kts | 63° |
| 2026-04-22 18:48 | 51.19739 | 0.30110 | 12548 ft | 340 kts | 52° |
| 2026-04-22 18:48 | 51.21318 | 0.32976 | 13295 ft | 343 kts | 51° |
| 2026-04-22 18:49 | 51.22894 | 0.35812 | 14018 ft | 347 kts | 51° |
| 2026-04-22 18:49 | 51.24510 | 0.38716 | 14701 ft | 351 kts | 51° |
| 2026-04-22 18:49 | 51.26141 | 0.41653 | 15337 ft | 354 kts | 51° |
| 2026-04-22 18:49 | 51.27784 | 0.44623 | 15979 ft | 357 kts | 51° |
| 2026-04-22 18:50 | 51.29415 | 0.47583 | 16598 ft | 360 kts | 51° |
| 2026-04-22 18:50 | 51.31074 | 0.50603 | 17213 ft | 363 kts | 51° |
| 2026-04-22 18:50 | 51.32747 | 0.53660 | 17436 ft | 364 kts | 51° |
| 2026-04-22 18:50 | 51.34415 | 0.56711 | 17471 ft | 363 kts | 51° |
| 2026-04-22 18:51 | 51.36065 | 0.59732 | 17457 ft | 363 kts | 51° |
| 2026-04-22 18:51 | 51.37729 | 0.62780 | 17368 ft | 362 kts | 51° |
| 2026-04-22 18:51 | 51.39408 | 0.65815 | 17372 ft | 363 kts | 48° |
| 2026-04-22 18:51 | 51.41474 | 0.68177 | 17393 ft | 370 kts | 26° |
| 2026-04-22 18:52 | 51.44000 | 0.69182 | 17952 ft | 380 kts | 8° |
| 2026-04-22 18:52 | 51.46615 | 0.69521 | 18610 ft | 382 kts | 6° |
| 2026-04-22 18:52 | 51.49289 | 0.69818 | 19205 ft | 384 kts | 6° |
| 2026-04-22 18:52 | 51.51961 | 0.70119 | 19841 ft | 384 kts | 6° |
| 2026-04-22 18:53 | 51.54632 | 0.70436 | 20515 ft | 383 kts | 6° |
| 2026-04-22 18:53 | 51.57274 | 0.70931 | 21175 ft | 381 kts | 14° |
| 2026-04-22 18:53 | 51.59702 | 0.72452 | 21777 ft | 380 kts | 31° |
| 2026-04-22 18:53 | 51.61757 | 0.75137 | 22343 ft | 383 kts | 48° |
| 2026-04-22 18:54 | 51.63268 | 0.78697 | 22871 ft | 387 kts | 57° |
| 2026-04-22 18:54 | 51.64664 | 0.82438 | 23372 ft | 390 kts | 57° |
| 2026-04-22 18:54 | 51.66066 | 0.86203 | 23855 ft | 393 kts | 57° |
| 2026-04-22 18:54 | 51.67467 | 0.89960 | 24255 ft | 396 kts | 57° |
| 2026-04-22 18:55 | 51.68895 | 0.93782 | 24633 ft | 399 kts | 57° |
| 2026-04-22 18:55 | 51.70343 | 0.97651 | 25011 ft | 402 kts | 57° |
| 2026-04-22 18:55 | 51.71796 | 1.01533 | 25373 ft | 405 kts | 57° |
| 2026-04-22 18:55 | 51.73242 | 1.05408 | 25732 ft | 408 kts | 56° |
| 2026-04-22 18:56 | 51.74729 | 1.09394 | 26091 ft | 411 kts | 56° |
| 2026-04-22 18:56 | 51.76189 | 1.13307 | 26439 ft | 413 kts | 56° |
| 2026-04-22 18:56 | 51.77676 | 1.17305 | 26781 ft | 415 kts | 56° |
| 2026-04-22 18:56 | 51.79173 | 1.21339 | 27149 ft | 418 kts | 56° |
| 2026-04-22 18:57 | 51.80673 | 1.25391 | 27508 ft | 420 kts | 56° |
| 2026-04-22 18:57 | 51.82159 | 1.29411 | 27865 ft | 421 kts | 56° |
| 2026-04-22 18:57 | 51.83670 | 1.33505 | 28218 ft | 423 kts | 56° |
| 2026-04-22 18:57 | 51.85187 | 1.37628 | 28557 ft | 425 kts | 56° |
| 2026-04-22 18:58 | 51.86686 | 1.41702 | 28887 ft | 427 kts | 55° |
| 2026-04-22 18:58 | 51.88212 | 1.45851 | 29217 ft | 429 kts | 55° |
| 2026-04-22 18:58 | 51.89739 | 1.50018 | 29532 ft | 431 kts | 55° |
| 2026-04-22 18:58 | 51.91272 | 1.54208 | 29832 ft | 432 kts | 55° |
| 2026-04-22 18:59 | 51.92812 | 1.58422 | 30133 ft | 434 kts | 55° |
| 2026-04-22 18:59 | 51.94356 | 1.62651 | 30414 ft | 436 kts | 55° |
| 2026-04-22 18:59 | 51.95886 | 1.66850 | 30647 ft | 437 kts | 55° |
| 2026-04-22 18:59 | 51.97442 | 1.71131 | 30869 ft | 439 kts | 56° |
| 2026-04-22 19:00 | 51.98995 | 1.75420 | 31083 ft | 441 kts | 56° |
| 2026-04-22 19:00 | 52.00555 | 1.79725 | 31283 ft | 443 kts | 56° |
| 2026-04-22 19:00 | 52.02124 | 1.84055 | 31524 ft | 443 kts | 56° |
| 2026-04-22 19:00 | 52.03669 | 1.88320 | 31812 ft | 442 kts | 56° |
| 2026-04-22 19:01 | 52.05232 | 1.92647 | 32099 ft | 442 kts | 56° |
| 2026-04-22 19:01 | 52.06790 | 1.96972 | 32382 ft | 442 kts | 56° |
| 2026-04-22 19:01 | 52.08342 | 2.01289 | 32660 ft | 441 kts | 56° |
| 2026-04-22 19:01 | 52.09873 | 2.05556 | 32958 ft | 441 kts | 56° |
| 2026-04-22 19:02 | 52.11421 | 2.09877 | 33254 ft | 440 kts | 56° |
| 2026-04-22 19:02 | 52.12962 | 2.14182 | 33538 ft | 440 kts | 56° |
| 2026-04-22 19:02 | 52.14506 | 2.18506 | 33823 ft | 439 kts | 56° |
| 2026-04-22 19:02 | 52.16021 | 2.22759 | 34118 ft | 439 kts | 56° |
| 2026-04-22 19:03 | 52.17553 | 2.27063 | 34395 ft | 439 kts | 56° |
| 2026-04-22 19:03 | 52.19089 | 2.31381 | 34640 ft | 438 kts | 56° |
| 2026-04-22 19:03 | 52.20619 | 2.35690 | 34887 ft | 438 kts | 57° |
| 2026-04-22 19:03 | 52.22144 | 2.39988 | 35126 ft | 437 kts | 57° |
| 2026-04-22 19:04 | 52.23669 | 2.44297 | 35356 ft | 437 kts | 57° |
| 2026-04-22 19:04 | 52.25171 | 2.48554 | 35569 ft | 437 kts | 57° |
| 2026-04-22 19:04 | 52.26686 | 2.52868 | 35792 ft | 437 kts | 57° |
| 2026-04-22 19:04 | 52.28200 | 2.57184 | 35994 ft | 436 kts | 57° |
| 2026-04-22 19:05 | 52.29708 | 2.61502 | 36210 ft | 436 kts | 59° |
| 2026-04-22 19:05 | 52.30960 | 2.65972 | 36415 ft | 439 kts | 68° |
| 2026-04-22 19:05 | 52.31852 | 2.70772 | 36601 ft | 440 kts | 71° |
| 2026-04-22 19:05 | 52.32698 | 2.75594 | 36807 ft | 439 kts | 71° |
| 2026-04-22 19:06 | 52.33261 | 2.78789 | 36937 ft | 439 kts | 71° |
| 2026-04-22 19:06 | 52.34382 | 2.85153 | 37170 ft | 439 kts | 71° |
| 2026-04-22 19:06 | 52.35226 | 2.89955 | 37347 ft | 439 kts | 71° |
| 2026-04-22 19:07 | 52.36629 | 2.97948 | 37407 ft | 438 kts | 71° |
| 2026-04-22 19:07 | 52.38302 | 3.07554 | 37402 ft | 438 kts | 71° |
| 2026-04-22 19:08 | 52.39952 | 3.17137 | 37403 ft | 438 kts | 72° |
| 2026-04-22 19:08 | 52.41597 | 3.26766 | 37405 ft | 437 kts | 72° |
| 2026-04-22 19:09 | 52.43227 | 3.36327 | 37401 ft | 437 kts | 72° |
| 2026-04-22 19:09 | 52.44866 | 3.45961 | 37407 ft | 437 kts | 72° |
| 2026-04-22 19:10 | 52.46490 | 3.55572 | 37408 ft | 437 kts | 72° |
| 2026-04-22 19:10 | 52.48102 | 3.65159 | 37414 ft | 437 kts | 72° |
| 2026-04-22 19:11 | 52.49700 | 3.74730 | 37417 ft | 437 kts | 72° |
| 2026-04-22 19:11 | 52.51301 | 3.84371 | 37421 ft | 436 kts | 72° |
| 2026-04-22 19:12 | 52.52887 | 3.93985 | 37426 ft | 436 kts | 73° |
| 2026-04-22 19:12 | 52.54471 | 4.03638 | 37433 ft | 436 kts | 73° |
| 2026-04-22 19:13 | 52.56046 | 4.13271 | 37430 ft | 435 kts | 73° |
| 2026-04-22 19:13 | 52.57602 | 4.22856 | 37428 ft | 436 kts | 73° |
| 2026-04-22 19:14 | 52.59160 | 4.32509 | 37431 ft | 436 kts | 73° |
| 2026-04-22 19:14 | 52.60701 | 4.42108 | 37429 ft | 435 kts | 73° |
| 2026-04-22 19:15 | 52.61984 | 4.50148 | 37432 ft | 435 kts | 73° |
| 2026-04-22 19:15 | 52.63764 | 4.61386 | 37430 ft | 435 kts | 74° |
| 2026-04-22 19:16 | 52.65290 | 4.71050 | 37429 ft | 435 kts | 74° |
| 2026-04-22 19:16 | 52.66794 | 4.80651 | 37431 ft | 434 kts | 74° |
| 2026-04-22 19:17 | 52.68304 | 4.90324 | 37431 ft | 434 kts | 74° |
| 2026-04-22 19:17 | 52.69786 | 4.99926 | 37433 ft | 433 kts | 74° |
| 2026-04-22 19:18 | 52.71271 | 5.09580 | 37435 ft | 433 kts | 74° |
| 2026-04-22 19:18 | 52.72754 | 5.19225 | 37434 ft | 432 kts | 75° |
| 2026-04-22 19:19 | 52.74314 | 5.28769 | 37433 ft | 431 kts | 69° |
| 2026-04-22 19:19 | 52.76330 | 5.38035 | 37433 ft | 430 kts | 69° |
| 2026-04-22 19:20 | 52.78343 | 5.47358 | 37434 ft | 430 kts | 69° |
| 2026-04-22 19:20 | 52.80330 | 5.56625 | 37437 ft | 429 kts | 70° |
| 2026-04-22 19:21 | 52.82325 | 5.65955 | 37439 ft | 429 kts | 70° |
| 2026-04-22 19:21 | 52.84289 | 5.75198 | 37437 ft | 428 kts | 70° |
| 2026-04-22 19:22 | 52.86256 | 5.84507 | 37436 ft | 428 kts | 70° |
| 2026-04-22 19:22 | 52.88201 | 5.93765 | 37433 ft | 427 kts | 70° |
| 2026-04-22 19:23 | 52.90153 | 6.03085 | 37432 ft | 427 kts | 70° |
| 2026-04-22 19:23 | 52.92089 | 6.12342 | 37433 ft | 426 kts | 70° |
| 2026-04-22 19:24 | 52.94013 | 6.21575 | 37427 ft | 426 kts | 70° |
| 2026-04-22 19:24 | 52.95933 | 6.30827 | 37424 ft | 425 kts | 71° |
| 2026-04-22 19:25 | 52.97842 | 6.40128 | 37422 ft | 425 kts | 71° |
| 2026-04-22 19:25 | 52.99742 | 6.49424 | 37420 ft | 424 kts | 71° |
| 2026-04-22 19:26 | 53.01636 | 6.58724 | 37418 ft | 424 kts | 71° |
| 2026-04-22 19:26 | 53.03501 | 6.67923 | 37419 ft | 424 kts | 71° |
| 2026-04-22 19:27 | 53.05376 | 6.77200 | 37420 ft | 423 kts | 71° |
| 2026-04-22 19:27 | 53.07239 | 6.86445 | 37423 ft | 423 kts | 71° |
| 2026-04-22 19:28 | 53.09102 | 6.95735 | 37424 ft | 422 kts | 72° |
| 2026-04-22 19:28 | 53.10944 | 7.04977 | 37422 ft | 422 kts | 72° |
| 2026-04-22 19:29 | 53.12775 | 7.14248 | 37433 ft | 421 kts | 72° |
| 2026-04-22 19:29 | 53.14605 | 7.23529 | 37436 ft | 420 kts | 72° |
| 2026-04-22 19:30 | 53.16108 | 7.31184 | 37438 ft | 420 kts | 72° |
| 2026-04-22 19:30 | 53.18214 | 7.41953 | 37412 ft | 419 kts | 72° |
| 2026-04-22 19:30 | 53.19238 | 7.46533 | 36724 ft | 423 kts | 64° |
| 2026-04-22 19:31 | 53.20656 | 7.50834 | 35597 ft | 431 kts | 63° |
| 2026-04-22 19:31 | 53.22152 | 7.55202 | 34662 ft | 433 kts | 63° |
| 2026-04-22 19:31 | 53.23663 | 7.59558 | 33706 ft | 432 kts | 63° |
| 2026-04-22 19:31 | 53.25167 | 7.63885 | 32864 ft | 429 kts | 63° |
| 2026-04-22 19:32 | 53.26638 | 7.68143 | 32154 ft | 425 kts | 63° |
| 2026-04-22 19:32 | 53.28096 | 7.72395 | 31618 ft | 418 kts | 63° |
| 2026-04-22 19:32 | 53.29526 | 7.76589 | 31064 ft | 412 kts | 64° |
| 2026-04-22 19:32 | 53.30917 | 7.80697 | 30534 ft | 407 kts | 64° |
| 2026-04-22 19:33 | 53.32300 | 7.84798 | 29941 ft | 402 kts | 64° |
| 2026-04-22 19:33 | 53.33665 | 7.88847 | 29432 ft | 395 kts | 64° |
| 2026-04-22 19:33 | 53.35008 | 7.92833 | 28926 ft | 390 kts | 64° |
| 2026-04-22 19:33 | 53.36321 | 7.96727 | 28417 ft | 385 kts | 64° |
| 2026-04-22 19:34 | 53.37627 | 8.00612 | 27925 ft | 380 kts | 64° |
| 2026-04-22 19:34 | 53.38918 | 8.04459 | 27440 ft | 375 kts | 63° |
| 2026-04-22 19:34 | 53.40188 | 8.08258 | 26968 ft | 371 kts | 63° |
| 2026-04-22 19:34 | 53.41428 | 8.11971 | 26510 ft | 367 kts | 63° |
| 2026-04-22 19:35 | 53.42676 | 8.15709 | 26063 ft | 364 kts | 63° |
| 2026-04-22 19:35 | 53.43913 | 8.19407 | 25621 ft | 361 kts | 63° |
| 2026-04-22 19:35 | 53.44724 | 8.21834 | 25333 ft | 359 kts | 63° |
| 2026-04-22 19:35 | 53.46332 | 8.26654 | 24765 ft | 355 kts | 62° |
| 2026-04-22 19:36 | 53.47535 | 8.30268 | 24338 ft | 352 kts | 62° |
| 2026-04-22 19:36 | 53.48725 | 8.33856 | 23907 ft | 349 kts | 62° |
| 2026-04-22 19:36 | 53.49890 | 8.37371 | 23454 ft | 345 kts | 62° |
| 2026-04-22 19:36 | 53.51055 | 8.40892 | 23040 ft | 341 kts | 62° |
| 2026-04-22 19:37 | 53.52204 | 8.44365 | 22624 ft | 337 kts | 62° |
| 2026-04-22 19:37 | 53.53326 | 8.47760 | 22227 ft | 334 kts | 61° |
| 2026-04-22 19:37 | 53.54454 | 8.51179 | 21802 ft | 332 kts | 61° |
| 2026-04-22 19:37 | 53.55570 | 8.54573 | 21405 ft | 330 kts | 61° |
| 2026-04-22 19:38 | 53.56681 | 8.57953 | 20982 ft | 328 kts | 61° |
| 2026-04-22 19:38 | 53.57772 | 8.61270 | 20573 ft | 327 kts | 61° |
| 2026-04-22 19:38 | 53.58872 | 8.64619 | 20154 ft | 325 kts | 61° |
| 2026-04-22 19:38 | 53.59951 | 8.67916 | 19734 ft | 324 kts | 61° |
| 2026-04-22 19:39 | 53.61038 | 8.71245 | 19321 ft | 323 kts | 61° |
| 2026-04-22 19:39 | 53.62126 | 8.74575 | 18902 ft | 322 kts | 61° |
| 2026-04-22 19:39 | 53.63194 | 8.77846 | 18466 ft | 322 kts | 61° |
| 2026-04-22 19:39 | 53.64273 | 8.81163 | 18035 ft | 320 kts | 61° |
| 2026-04-22 19:40 | 53.65338 | 8.84447 | 17621 ft | 318 kts | 61° |
| 2026-04-22 19:40 | 53.66384 | 8.87672 | 17223 ft | 316 kts | 60° |
| 2026-04-22 19:40 | 53.67441 | 8.90932 | 16821 ft | 314 kts | 60° |
| 2026-04-22 19:40 | 53.68477 | 8.94134 | 16428 ft | 313 kts | 61° |
| 2026-04-22 19:41 | 53.69518 | 8.97359 | 16037 ft | 312 kts | 60° |
| 2026-04-22 19:41 | 53.70556 | 9.00578 | 15642 ft | 310 kts | 60° |
| 2026-04-22 19:41 | 53.71587 | 9.03780 | 15249 ft | 309 kts | 60° |
| 2026-04-22 19:41 | 53.72617 | 9.06974 | 14862 ft | 309 kts | 60° |
| 2026-04-22 19:42 | 53.73629 | 9.10121 | 14465 ft | 308 kts | 60° |
| 2026-04-22 19:42 | 53.74656 | 9.13308 | 14054 ft | 307 kts | 60° |
| 2026-04-22 19:42 | 53.75679 | 9.16489 | 13632 ft | 306 kts | 60° |
| 2026-04-22 19:42 | 53.76680 | 9.19605 | 13237 ft | 304 kts | 60° |
| 2026-04-22 19:43 | 53.78689 | 9.25873 | 12428 ft | 301 kts | 60° |
| 2026-04-22 19:43 | 53.79670 | 9.28950 | 12022 ft | 300 kts | 60° |
| 2026-04-22 19:43 | 53.80657 | 9.32061 | 11614 ft | 298 kts | 61° |
| 2026-04-22 19:44 | 53.81420 | 9.35338 | 11244 ft | 300 kts | 73° |
| 2026-04-22 19:44 | 53.81858 | 9.38813 | 11104 ft | 309 kts | 76° |
| 2026-04-22 19:44 | 53.82290 | 9.42383 | 10926 ft | 310 kts | 76° |
| 2026-04-22 19:44 | 53.82728 | 9.45976 | 10740 ft | 309 kts | 76° |
| 2026-04-22 19:45 | 53.83149 | 9.49452 | 10592 ft | 298 kts | 76° |
| 2026-04-22 19:45 | 53.83557 | 9.52835 | 10427 ft | 288 kts | 76° |
| 2026-04-22 19:45 | 53.83954 | 9.56128 | 10255 ft | 282 kts | 76° |
| 2026-04-22 19:45 | 53.84348 | 9.59391 | 10155 ft | 283 kts | 76° |
| 2026-04-22 19:46 | 53.84736 | 9.62612 | 10006 ft | 282 kts | 76° |
| 2026-04-22 19:46 | 53.85127 | 9.65869 | 9844 ft | 281 kts | 76° |
| 2026-04-22 19:46 | 53.85514 | 9.69120 | 9683 ft | 281 kts | 76° |
| 2026-04-22 19:46 | 53.85897 | 9.72347 | 9522 ft | 274 kts | 76° |
| 2026-04-22 19:47 | 53.86267 | 9.75467 | 8860 ft | 276 kts | 75° |
| 2026-04-22 19:47 | 53.86643 | 9.78755 | 7668 ft | 291 kts | 80° |
| 2026-04-22 19:47 | 53.86676 | 9.81080 | 6878 ft | 303 kts | 92° |
| 2026-04-22 19:47 | 53.86347 | 9.85917 | 5174 ft | 318 kts | 94° |
| 2026-04-22 19:48 | 53.86080 | 9.89686 | 4287 ft | 318 kts | 95° |
| 2026-04-22 19:48 | 53.85819 | 9.93276 | 4060 ft | 292 kts | 95° |
| 2026-04-22 19:48 | 53.85579 | 9.96530 | 4002 ft | 262 kts | 94° |
| 2026-04-22 19:48 | 53.85365 | 9.99429 | 4009 ft | 243 kts | 94° |
| 2026-04-22 19:49 | 53.85163 | 10.02251 | 4012 ft | 239 kts | 94° |
| 2026-04-22 19:49 | 53.84962 | 10.05043 | 4014 ft | 238 kts | 94° |
| 2026-04-22 19:49 | 53.84760 | 10.07839 | 4010 ft | 239 kts | 94° |
| 2026-04-22 19:49 | 53.84560 | 10.10605 | 4011 ft | 239 kts | 94° |
| 2026-04-22 19:50 | 53.84359 | 10.13402 | 4013 ft | 239 kts | 94° |
| 2026-04-22 19:50 | 53.84179 | 10.16204 | 4011 ft | 238 kts | 88° |
| 2026-04-22 19:50 | 53.84376 | 10.18915 | 4012 ft | 233 kts | 70° |
| 2026-04-22 19:50 | 53.85038 | 10.21397 | 3886 ft | 228 kts | 53° |
| 2026-04-22 19:51 | 53.86022 | 10.23487 | 3506 ft | 226 kts | 46° |
| 2026-04-22 19:51 | 53.87036 | 10.25532 | 3151 ft | 226 kts | 47° |
| 2026-04-22 19:51 | 53.87739 | 10.27928 | 2974 ft | 239 kts | 78° |
| 2026-04-22 19:51 | 53.87590 | 10.30740 | 2983 ft | 238 kts | 110° |
| 2026-04-22 19:52 | 53.86708 | 10.32983 | 2986 ft | 223 kts | 134° |
| 2026-04-22 19:52 | 53.85496 | 10.34532 | 2992 ft | 220 kts | 154° |
| 2026-04-22 19:52 | 53.83998 | 10.35392 | 2997 ft | 236 kts | 173° |
| 2026-04-22 19:52 | 53.82351 | 10.35361 | 2996 ft | 237 kts | 194° |
| 2026-04-22 19:53 | 53.80824 | 10.34397 | 2991 ft | 232 kts | 214° |
| 2026-04-22 19:53 | 53.79620 | 10.32670 | 2991 ft | 228 kts | 233° |
| 2026-04-22 19:53 | 53.78947 | 10.31300 | 2995 ft | 228 kts | 234° |
| 2026-04-22 19:53 | 53.77598 | 10.28515 | 3006 ft | 228 kts | 234° |
| 2026-04-22 19:54 | 53.76597 | 10.26460 | 3006 ft | 229 kts | 233° |
| 2026-04-22 19:54 | 53.75582 | 10.24381 | 3009 ft | 228 kts | 233° |
| 2026-04-22 19:54 | 53.74570 | 10.22309 | 3011 ft | 229 kts | 233° |
| 2026-04-22 19:54 | 53.73554 | 10.20231 | 3010 ft | 229 kts | 234° |
| 2026-04-22 19:55 | 53.72549 | 10.18179 | 2851 ft | 228 kts | 233° |
| 2026-04-22 19:55 | 53.71540 | 10.16121 | 2569 ft | 225 kts | 234° |
| 2026-04-22 19:55 | 53.70562 | 10.14127 | 2270 ft | 215 kts | 234° |
| 2026-04-22 19:55 | 53.69627 | 10.12222 | 1978 ft | 206 kts | 234° |
| 2026-04-22 19:56 | 53.68743 | 10.10423 | 1705 ft | 195 kts | 234° |
| 2026-04-22 19:56 | 53.67922 | 10.08756 | 1467 ft | 174 kts | 235° |
| 2026-04-22 19:56 | 53.67179 | 10.07246 | 1220 ft | 159 kts | 236° |
| 2026-04-22 19:56 | 53.66515 | 10.05897 | 1007 ft | 145 kts | 236° |
| 2026-04-22 19:57 | 53.65892 | 10.04628 | 806 ft | 137 kts | 236° |
| 2026-04-22 19:57 | 53.65290 | 10.03404 | 624 ft | 134 kts | 234° |
| 2026-04-22 19:57 | 53.64698 | 10.02200 | 412 ft | 133 kts | 235° |
| 2026-04-22 19:57 | 53.64108 | 10.00997 | 245 ft | 132 kts | 234° |
| 2026-04-22 19:58 | 53.63528 | 9.99823 | 81 ft | 131 kts | 233° |
| 2026-04-22 19:58 | 53.63046 | 9.98843 | 46 ft | 51 kts | 230° |
| 2026-04-22 19:58 | 53.62885 | 9.98547 | 44 ft | 29 kts | 212° |
| 2026-04-22 19:58 | 53.62772 | 9.98479 | 45 ft | 8 kts | 187° |
| 2026-04-22 19:59 | 53.62723 | 9.98477 | 46 ft | 5 kts | 178° |
| 2026-04-22 20:00 | 53.62816 | 9.98808 | 47 ft | 8 kts | 50° |
| 2026-04-22 20:00 | 53.62892 | 9.98960 | 47 ft | 19 kts | 50° |
| 2026-04-22 20:01 | 53.62971 | 9.99120 | 47 ft | 15 kts | 50° |
| 2026-04-22 20:01 | 53.63018 | 9.99215 | 47 ft | 8 kts | 50° |
| 2026-04-22 20:01 | 53.63029 | 9.99238 | 47 ft | 0 kts | 51° |
| 2026-04-22 20:02 | 53.63055 | 9.99293 | 47 ft | 10 kts | 52° |
| 2026-04-22 20:03 | 53.63085 | 9.99364 | 47 ft | 3 kts | 55° |
| 2026-04-22 20:03 | 53.63088 | 9.99373 | 47 ft | 0 kts | 55° |
| 2026-04-22 20:04 | 53.63092 | 9.99382 | 47 ft | 5 kts | 54° |
| 2026-04-22 20:04 | 53.63119 | 9.99442 | 46 ft | 7 kts | 50° |
| 2026-04-22 20:04 | 53.63156 | 9.99530 | 46 ft | 13 kts | 51° |
| 2026-04-22 20:04 | 53.63205 | 9.99636 | 45 ft | 10 kts | 51° |
| 2026-04-22 20:05 | 53.63227 | 9.99721 | 48 ft | 8 kts | 98° |
| 2026-04-22 20:05 | 53.63197 | 9.99783 | 48 ft | 7 kts | 148° |
| 2026-04-22 20:05 | 53.63154 | 9.99822 | 48 ft | 7 kts | 150° |
| 2026-04-22 20:05 | 53.63122 | 9.99848 | 48 ft | 10 kts | 154° |
| 2026-04-22 20:06 | 53.63045 | 9.99915 | 48 ft | 9 kts | 154° |
| 2026-04-22 20:06 | 53.62993 | 9.99958 | 48 ft | 8 kts | 152° |
| 2026-04-22 20:06 | 53.62962 | 9.99988 | 47 ft | 7 kts | 146° |
| 2026-04-22 20:06 | 53.62948 | 10.00077 | 48 ft | 8 kts | 72° |
| 2026-04-22 20:07 | 53.62988 | 10.00135 | 48 ft | 7 kts | 31° |
| 2026-04-22 20:07 | 53.63011 | 10.00173 | 48 ft | 3 kts | 68° |
| 2026-04-22 20:07 | 53.62999 | 10.00190 | 48 ft | 2 kts | 129° |
| 2026-04-22 20:07 | 53.62991 | 10.00214 | 48 ft | 2 kts | 123° |
| 2026-04-22 20:08 | 53.62971 | 10.00265 | 47 ft | 5 kts | 123° |
| 2026-04-22 20:08 | 53.62965 | 10.00282 | 45 ft | 0 kts | 123° |